Marco Polo — C6JZ7 — position and weather

sailwx.info

Track history (hours):
 
Tides and Currents Weather Stations Pressure Air Temp Water Temp Dewpoint Dewpoint Depression Visibility Wind Speed Wind Dir Waves Ship Positions

Marco Polo

Operator: Orient Lines

Last reported at 2019-Jun-16 14:28 UTC. Time now 2019-Jun-16 14:38 UTC.
Position N 49°29' E 000°06'.

Type: Ship. MMSI: 308691456.

Date/timePositionNaut miles runAvg speedWind from/ knotsBaromVisibWave heightAir tempDewpointWater temp
2019-Jun-16 14:28N 49°29' E 000°06'0 0.0
2019-Jun-16 13:58N 49°29' E 000°06'0 0.0
2019-Jun-16 13:28N 49°29' E 000°06'0 0.0
2019-Jun-16 12:58N 49°29' E 000°06'0 0.0
2019-Jun-16 12:28N 49°29' E 000°06'0 0.0
2019-Jun-16 11:58N 49°29' E 000°06'0 0.0
2019-Jun-16 11:28N 49°29' E 000°06'0 0.0
2019-Jun-16 10:58N 49°29' E 000°06'0 0.0
2019-Jun-16 10:28N 49°29' E 000°06'0 0.0
2019-Jun-16 09:58N 49°29' E 000°06'0 0.0
2019-Jun-16 09:30N 49°29' E 000°06'2 3.7
2019-Jun-16 09:00N 49°29' E 000°04'3 5.2
2019-Jun-16 08:30N 49°27' E 000°02'612.7
2019-Jun-16 08:00N 49°26' E 000°12'510.4
2019-Jun-16 07:30N 49°26' E 000°20'5 9.0
2019-Jun-16 07:00N 49°28' E 000°26'3 6.8
2019-Jun-16 06:30N 49°29' E 000°31'4 7.1
2019-Jun-16 06:00N 49°26' E 000°35'4 8.2
2019-Jun-16 05:30N 49°29' E 000°40'4 8.4
2019-Jun-16 05:00N 49°31' E 000°45'510.0
2019-Jun-16 04:30N 49°27' E 000°49'3 7.0
2019-Jun-16 04:00N 49°24' E 000°52'510.1
2019-Jun-16 03:30N 49°29' E 000°54'510.3
2019-Jun-16 03:00N 49°24' E 000°55'4 7.1
2019-Jun-16 02:30N 49°22' E 000°59'4 7.9
2019-Jun-16 02:00N 49°25' E 001°01'1 3.0
2019-Jun-16 01:30N 49°26' E 001°03'0 0.0
2019-Jun-16 00:58N 49°26' E 001°03'0 0.0
2019-Jun-16 00:10N 49°26' E 001°03'0 0.0
2019-Jun-15 23:58N 49°26' E 001°03'0 0.0
2019-Jun-15 23:28N 49°26' E 001°03'0 0.0
2019-Jun-15 22:55N 49°26' E 001°03'0 0.0
2019-Jun-15 22:28N 49°26' E 001°03'0 0.0
2019-Jun-15 21:58N 49°26' E 001°03'0 0.0
2019-Jun-15 21:25N 49°26' E 001°03'0 0.0
2019-Jun-15 20:52N 49°26' E 001°03'0 0.0
2019-Jun-15 20:25N 49°26' E 001°03'0 0.0
2019-Jun-15 19:58N 49°26' E 001°03'0 0.0
2019-Jun-15 19:25N 49°26' E 001°03'0 0.0
2019-Jun-15 18:58N 49°26' E 001°03'0 0.0
2019-Jun-15 18:25N 49°26' E 001°03'0 0.0
2019-Jun-15 17:58N 49°26' E 001°03'0 0.0
2019-Jun-15 17:10N 49°26' E 001°03'0 0.0
2019-Jun-15 16:58N 49°26' E 001°03'0 0.0
2019-Jun-15 16:28N 49°26' E 001°03'0 0.0
2019-Jun-15 15:55N 49°26' E 001°03'0 0.0
2019-Jun-15 15:28N 49°26' E 001°03'0 0.0
2019-Jun-15 14:58N 49°26' E 001°03'0 0.0
2019-Jun-15 14:28N 49°26' E 001°03'0 0.0
2019-Jun-15 13:58N 49°26' E 001°03'0 0.0
2019-Jun-15 13:19N 49°26' E 001°03'0 0.0
2019-Jun-15 12:58N 49°26' E 001°03'0 0.0
2019-Jun-15 12:28N 49°26' E 001°03'0 0.0
2019-Jun-15 11:58N 49°26' E 001°03'0 0.0
2019-Jun-15 11:28N 49°26' E 001°03'0 0.0
2019-Jun-15 10:55N 49°26' E 001°03'0 0.0
2019-Jun-15 10:25N 49°26' E 001°03'0 0.0
2019-Jun-15 09:49N 49°26' E 001°03'0 0.0
2019-Jun-15 09:28N 49°26' E 001°03'0 0.0
2019-Jun-15 08:52N 49°26' E 001°03'0 0.0
2019-Jun-15 08:25N 49°26' E 001°03'0 0.0
2019-Jun-15 07:55N 49°26' E 001°03'0 0.0
2019-Jun-15 07:25N 49°26' E 001°03'0 0.0
2019-Jun-15 06:58N 49°26' E 001°03'0 0.0
2019-Jun-15 06:25N 49°26' E 001°03'0 0.0
2019-Jun-15 05:55N 49°26' E 001°03'0 0.0
2019-Jun-15 05:28N 49°26' E 001°03'0 0.0
2019-Jun-15 04:58N 49°26' E 001°03'0 0.0
2019-Jun-15 04:25N 49°26' E 001°03'0 0.0
2019-Jun-15 03:49N 49°26' E 001°03'0 0.0
2019-Jun-15 03:28N 49°26' E 001°03'0 0.0
2019-Jun-15 02:52N 49°26' E 001°03'0 0.0
2019-Jun-15 02:25N 49°26' E 001°03'0 0.0
2019-Jun-15 01:58N 49°26' E 001°03'0 0.0
2019-Jun-15 01:25N 49°26' E 001°03'0 0.0
2019-Jun-15 00:58N 49°26' E 001°03'0 0.0
2019-Jun-15 00:25N 49°26' E 001°03'0 0.0
2019-Jun-14 23:52N 49°26' E 001°03'0 0.0
2019-Jun-14 23:25N 49°26' E 001°03'0 0.0
2019-Jun-14 22:52N 49°26' E 001°03'0 0.0
2019-Jun-14 22:16N 49°26' E 001°03'0 0.0
2019-Jun-14 21:55N 49°26' E 001°03'0 0.0
2019-Jun-14 21:28N 49°26' E 001°03'0 0.0
2019-Jun-14 20:55N 49°26' E 001°03'0 0.0
2019-Jun-14 20:28N 49°26' E 001°03'0 0.0
2019-Jun-14 19:49N 49°26' E 001°03'0 0.0
2019-Jun-14 19:25N 49°26' E 001°03'0 0.0
2019-Jun-14 18:58N 49°26' E 001°03'0 0.0
2019-Jun-14 18:28N 49°26' E 001°03'0 0.0
2019-Jun-14 17:55N 49°26' E 001°03'0 0.0
2019-Jun-14 17:19N 49°26' E 001°03'0 0.0
2019-Jun-14 16:55N 49°26' E 001°03'0 0.0
2019-Jun-14 16:28N 49°26' E 001°03'0 0.0
2019-Jun-14 15:46N 49°26' E 001°03'0 0.0
2019-Jun-14 15:28N 49°26' E 001°03'0 0.0
2019-Jun-14 14:55N 49°26' E 001°03'0 0.0
2019-Jun-14 14:25N 49°26' E 001°03'0 0.0
2019-Jun-14 13:58N 49°26' E 001°03'0 0.0
2019-Jun-14 13:28N 49°26' E 001°03'0 0.0
2019-Jun-14 12:49N 49°26' E 001°03'0 0.0
2019-Jun-14 12:28N 49°26' E 001°03'0 0.0
2019-Jun-14 11:52N 49°26' E 001°03'0 0.0
2019-Jun-14 11:28N 49°26' E 001°03'0 0.0
2019-Jun-14 10:55N 49°26' E 001°03'0 0.0
2019-Jun-14 10:28N 49°26' E 001°03'0 0.0
2019-Jun-14 09:58N 49°26' E 001°03'0 0.0
2019-Jun-14 09:25N 49°26' E 001°03'0 0.0
2019-Jun-14 08:55N 49°26' E 001°03'0 0.0
2019-Jun-14 08:25N 49°26' E 001°03'0 0.0
2019-Jun-14 07:58N 49°26' E 001°03'0 0.0
2019-Jun-14 07:28N 49°26' E 001°03'0 0.0
2019-Jun-14 06:58N 49°26' E 001°03'0 0.0
2019-Jun-14 06:28N 49°26' E 001°03'0 0.0
2019-Jun-14 05:55N 49°26' E 001°03'0 0.0
2019-Jun-14 05:22N 49°26' E 001°03'0 0.0
2019-Jun-14 04:58N 49°26' E 001°03'0 0.0
2019-Jun-14 04:28N 49°26' E 001°03'0 0.0
2019-Jun-14 03:58N 49°26' E 001°03'0 0.0
2019-Jun-14 03:25N 49°26' E 001°03'0 0.0
2019-Jun-14 02:58N 49°26' E 001°03'0 0.0
2019-Jun-14 02:28N 49°26' E 001°03'0 0.0
2019-Jun-14 01:58N 49°26' E 001°03'0 0.0
2019-Jun-14 01:25N 49°26' E 001°03'0 0.0
2019-Jun-14 00:55N 49°26' E 001°03'0 0.0
2019-Jun-14 00:28N 49°26' E 001°03'0 0.0
2019-Jun-13 23:58N 49°26' E 001°03'0 0.4
2019-Jun-13 23:30N 49°26' E 001°03'1 1.6
2019-Jun-13 23:00N 49°26' E 001°02'4 7.4
2019-Jun-13 22:30N 49°22' E 001°00'3 6.7
2019-Jun-13 22:00N 49°23' E 000°55'611.6
2019-Jun-13 21:30N 49°28' E 000°56'4 7.5
2019-Jun-13 21:00N 49°26' E 000°52'2 4.8
2019-Jun-13 20:30N 49°26' E 000°48'510.0
2019-Jun-13 20:00N 49°31' E 000°46'4 8.5
2019-Jun-13 19:30N 49°29' E 000°40'5 9.4
2019-Jun-13 19:00N 49°27' E 000°34'5 9.1
2019-Jun-13 18:30N 49°28' E 000°27'714.2
2019-Jun-13 18:00N 49°26' E 000°16'713.5
2019-Jun-13 17:30N 49°26' E 000°06'612.9
2019-Jun-13 17:00N 49°29' W 000°03'510.9
2019-Jun-13 16:30N 49°30' W 000°11'612.1
2019-Jun-13 16:00N 49°32' W 000°20'815.4
2019-Jun-13 15:30N 49°35' W 000°31'917.7
2019-Jun-13 15:00N 49°38' W 000°44'917.6
2019-Jun-13 14:29N 49°41' W 000°57'3116.5
2019-Jun-13 12:38N 49°48' W 001°44'814.9
2019-Jun-13 12:07N 49°49' W 001°55'113.9
2019-Jun-13 12:01N 49°50' W 001°57'2912.5
2019-Jun-13 09:41N 49°51' W 002°43'213.3
2019-Jun-13 09:30N 49°51' W 002°46'713.5
2019-Jun-13 08:59N 49°50' W 002°57'713.7
2019-Jun-13 08:30N 49°50' W 003°07'714.0
2019-Jun-13 08:00N 49°50' W 003°18'714.2
2019-Jun-13 07:30N 49°50' W 003°29'714.4
2019-Jun-13 07:00N 49°51' W 003°40'714.6
2019-Jun-13 06:30N 49°51' W 003°52'714.8
2019-Jun-13 06:00N 49°52' W 004°03'815.9
2019-Jun-13 05:29N 49°52' W 004°16'816.2
2019-Jun-13 05:00N 49°52' W 004°28'14814.0
2019-Jun-12 18:26N 51°19' W 007°36'614.7
2019-Jun-12 18:00N 51°24' W 007°43'714.9
2019-Jun-12 17:30N 51°29' W 007°51'714.9
2019-Jun-12 17:00N 51°35' W 007°59'815.0
2019-Jun-12 16:30N 51°40' W 008°07'714.6
2019-Jun-12 16:00N 51°46' W 008°15'510.5
2019-Jun-12 15:30N 51°51' W 008°17'2 3.1
2019-Jun-12 14:58N 51°50' W 008°20'0 0.0
2019-Jun-12 14:28N 51°50' W 008°20'0 0.0
2019-Jun-12 13:58N 51°50' W 008°20'0 0.0
2019-Jun-12 13:28N 51°50' W 008°20'0 0.0
2019-Jun-12 12:58N 51°50' W 008°20'0 0.0
2019-Jun-12 12:28N 51°50' W 008°20'0 0.0
2019-Jun-12 11:58N 51°50' W 008°20'0 0.0
2019-Jun-12 11:28N 51°50' W 008°20'0 0.0
2019-Jun-12 10:58N 51°50' W 008°20'0 0.0
2019-Jun-12 10:28N 51°50' W 008°20'0 0.0
2019-Jun-12 09:58N 51°50' W 008°20'0 0.0
2019-Jun-12 09:28N 51°50' W 008°20'0 0.0
2019-Jun-12 08:58N 51°50' W 008°20'0 0.0
2019-Jun-12 08:28N 51°50' W 008°20'0 0.0
2019-Jun-12 07:58N 51°50' W 008°20'0 0.0
2019-Jun-12 07:28N 51°50' W 008°20'0 0.0
2019-Jun-12 06:59N 51°50' W 008°20'0 0.4
2019-Jun-12 06:30N 51°50' W 008°20'2 5.0
2019-Jun-12 06:00N 51°51' W 008°16'510.8
2019-Jun-12 05:30N 51°45' W 008°15'5 9.2
2019-Jun-12 05:00N 51°44' W 008°08'714.4
2019-Jun-12 04:30N 51°46' W 007°57'714.0
2019-Jun-12 04:01N 51°48' W 007°46'714.0
2019-Jun-12 03:30N 51°50' W 007°35'713.8
2019-Jun-12 03:00N 51°52' W 007°24'3813.5
2019-Jun-12 00:10N 52°04' W 006°25'313.6
2019-Jun-11 23:57N 52°05' W 006°21'614.1
2019-Jun-11 23:30N 52°08' W 006°12'714.1
2019-Jun-11 23:00N 52°14' W 006°06'815.1
2019-Jun-11 22:30N 52°21' W 006°02'815.7
2019-Jun-11 22:00N 52°29' W 005°57'1516.1
2019-Jun-11 21:06N 52°43' W 005°49'116.4
2019-Jun-11 21:00N 52°44' W 005°49'816.5
2019-Jun-11 20:30N 52°52' W 005°45'816.3
2019-Jun-11 20:00N 52°60' W 005°40'815.0
2019-Jun-11 19:30N 53°07' W 005°42'714.9
2019-Jun-11 19:00N 53°13' W 005°48'1014.0
2019-Jun-11 18:17N 53°21' W 006°00'311.8
2019-Jun-11 18:00N 53°20' W 006°05'4 8.6
2019-Jun-11 17:30N 53°21' W 006°12'0 0.2
2019-Jun-11 16:55N 53°21' W 006°13'0 0.0
2019-Jun-11 16:19N 53°21' W 006°13'0 0.0
2019-Jun-11 15:49N 53°21' W 006°13'0 0.0
2019-Jun-11 15:19N 53°21' W 006°13'0 0.0
2019-Jun-11 14:49N 53°21' W 006°13'0 0.0
2019-Jun-11 14:19N 53°21' W 006°13'0 0.0
2019-Jun-11 13:43N 53°21' W 006°13'0 0.0
2019-Jun-11 13:13N 53°21' W 006°13'0 0.0
2019-Jun-11 12:43N 53°21' W 006°13'0 0.0
2019-Jun-11 12:13N 53°21' W 006°13'0 0.0
2019-Jun-11 11:40N 53°21' W 006°13'0 0.0
2019-Jun-11 11:31N 53°21' W 006°13'0 0.0
2019-Jun-11 11:00N 53°21' W 006°13'0 0.0
2019-Jun-11 10:31N 53°21' W 006°13'0 0.0
2019-Jun-11 10:00N 53°21' W 006°13'0 0.0
2019-Jun-11 09:06N 53°21' W 006°13'0 0.0
2019-Jun-11 09:00N 53°21' W 006°13'0 0.0
2019-Jun-11 08:30N 53°21' W 006°13'0 0.0
2019-Jun-11 08:00N 53°21' W 006°13'0 0.0
2019-Jun-11 07:30N 53°21' W 006°13'0 0.0
2019-Jun-11 07:00N 53°21' W 006°13'0 0.0
2019-Jun-11 06:30N 53°21' W 006°13'0 0.0
2019-Jun-11 06:00N 53°21' W 006°13'1 1.8
2019-Jun-11 05:30N 53°21' W 006°11'4 8.9
2019-Jun-11 05:00N 53°20' W 006°04'711.4
2019-Jun-11 04:23N 53°18' W 005°53'614.4
2019-Jun-11 04:00N 53°13' W 005°48'714.7
2019-Jun-11 03:30N 53°07' W 005°40'714.7
2019-Jun-11 03:00N 53°00' W 005°38'816.1
2019-Jun-11 02:30N 52°52' W 005°39'816.1
2019-Jun-11 02:00N 52°44' W 005°40'1715.8
2019-Jun-11 00:55N 52°27' W 005°41'716.9
2019-Jun-11 00:30N 52°20' W 005°42'917.0
2019-Jun-10 23:59N 52°11' W 005°43'3416.0
2019-Jun-10 21:52N 51°38' W 005°51'615.3
2019-Jun-10 21:30N 51°32' W 005°53'815.1
2019-Jun-10 21:00N 51°25' W 005°55'102 5.2
2019-Jun-10 01:16N 49°56' W 004°34'614.7
2019-Jun-10 00:50N 49°58' W 004°25'514.5
2019-Jun-10 00:30N 49°59' W 004°17'714.8
2019-Jun-10 00:00N 50°01' W 004°07'815.5
2019-Jun-09 23:30N 50°04' W 003°55'815.1
2019-Jun-09 23:01N 50°06' W 003°44'815.1
2019-Jun-09 22:30N 50°08' W 003°33'815.4
2019-Jun-09 22:01N 50°10' W 003°21'815.7
2019-Jun-09 21:30N 50°11' W 003°09'816.0
2019-Jun-09 21:01N 50°13' W 002°57'816.6
2019-Jun-09 20:31N 50°15' W 002°44'917.2
2019-Jun-09 20:00N 50°17' W 002°31'918.0
2019-Jun-09 19:30N 50°19' W 002°17'918.4
2019-Jun-09 19:01N 50°21' W 002°04'918.6
2019-Jun-09 18:31N 50°23' W 001°49'918.4
2019-Jun-09 18:01N 50°26' W 001°35'918.1
2019-Jun-09 17:31N 50°29' W 001°22'918.7
2019-Jun-09 17:01N 50°33' W 001°09'816.2
2019-Jun-09 16:31N 50°38' W 000°59'510.9
2019-Jun-09 16:00N 50°43' W 001°02'510.9
2019-Jun-09 15:30N 50°48' W 001°07'1 2.3
2019-Jun-09 15:00N 50°49' W 001°06'0 0.0
2019-Jun-09 14:30N 50°49' W 001°06'0 0.0
2019-Jun-09 14:00N 50°49' W 001°06'0 0.0
2019-Jun-09 13:30N 50°49' W 001°06'0 0.0
2019-Jun-09 13:00N 50°49' W 001°06'0 0.0
2019-Jun-09 12:30N 50°49' W 001°06'0 0.0
2019-Jun-09 12:00N 50°49' W 001°06'0 0.0
2019-Jun-09 11:30N 50°49' W 001°06'0 0.0
2019-Jun-09 11:00N 50°49' W 001°06'0 0.0
2019-Jun-09 10:30N 50°49' W 001°06'0 0.0
2019-Jun-09 10:00N 50°49' W 001°06'0 0.0
2019-Jun-09 09:30N 50°49' W 001°06'0 0.0
2019-Jun-09 09:00N 50°49' W 001°06'0 0.0
2019-Jun-09 08:30N 50°49' W 001°06'0 0.0
2019-Jun-09 08:00N 50°49' W 001°06'0 0.0
2019-Jun-09 07:30N 50°49' W 001°06'0 0.0
2019-Jun-09 07:00N 50°49' W 001°06'0 0.0
2019-Jun-09 06:30N 50°49' W 001°06'0 0.0
2019-Jun-09 06:00N 50°49' W 001°06'0 0.0
2019-Jun-09 05:30N 50°49' W 001°06'0 0.0
2019-Jun-09 05:00N 50°49' W 001°06'0 0.0
2019-Jun-09 04:00N 50°49' W 001°06'0 0.0
2019-Jun-09 03:30N 50°49' W 001°06'0 0.0
2019-Jun-09 03:00N 50°49' W 001°06'0 0.0
2019-Jun-09 02:30N 50°49' W 001°06'0 0.0
2019-Jun-09 02:00N 50°49' W 001°06'0 0.0
2019-Jun-09 01:30N 50°49' W 001°06'0 0.0
2019-Jun-09 01:00N 50°49' W 001°06'0 0.0
2019-Jun-09 00:30N 50°49' W 001°06'0 0.0
2019-Jun-09 00:00N 50°49' W 001°06'0 0.0
2019-Jun-08 23:30N 50°49' W 001°06'0 0.0
2019-Jun-08 23:00N 50°49' W 001°06'0 0.0
2019-Jun-08 22:30N 50°49' W 001°06'0 0.0
2019-Jun-08 22:00N 50°49' W 001°06'0 0.0
2019-Jun-08 21:30N 50°49' W 001°06'0 0.0
2019-Jun-08 21:00N 50°49' W 001°06'0 0.0
2019-Jun-08 20:30N 50°49' W 001°06'0 0.0
2019-Jun-08 20:00N 50°49' W 001°06'0 0.1
2019-Jun-08 19:30N 50°49' W 001°06'2 4.4
2019-Jun-08 19:00N 50°46' W 001°06'5 9.6
2019-Jun-08 18:30N 50°43' W 001°00'510.2
2019-Jun-08 18:00N 50°38' W 000°59'612.2
2019-Jun-08 17:30N 50°32' W 000°59'815.7
2019-Jun-08 17:00N 50°24' W 000°56'815.9
2019-Jun-08 16:30N 50°17' W 000°49'1016.5
2019-Jun-08 15:54N 50°09' W 000°41'616.1
2019-Jun-08 15:30N 50°03' W 000°37'816.0
2019-Jun-08 15:00N 49°56' W 000°32'815.7
2019-Jun-08 14:30N 49°48' W 000°28'815.9
2019-Jun-08 14:01N 49°41' W 000°24'815.7
2019-Jun-08 13:31N 49°34' W 000°19'815.2
2019-Jun-08 13:01N 49°30' W 000°09'612.8
2019-Jun-08 12:30N 49°28' E 000°00'611.7
2019-Jun-08 12:00N 49°26' E 000°09'510.9
2019-Jun-08 11:30N 49°26' E 000°17'4 8.7
2019-Jun-08 11:00N 49°27' E 000°24'5 9.0
2019-Jun-08 10:30N 49°29' E 000°30'510.1
2019-Jun-08 10:00N 49°26' E 000°36'611.7
2019-Jun-08 09:30N 49°31' E 000°41'4 8.1
2019-Jun-08 09:01N 49°29' E 000°46'5 9.2
2019-Jun-08 08:30N 49°25' E 000°48'3 5.1
2019-Jun-08 08:00N 49°27' E 000°51'3 6.2
2019-Jun-08 07:30N 49°27' E 000°56'612.1
2019-Jun-08 07:00N 49°21' E 000°56'4 7.1
2019-Jun-08 06:30N 49°23' E 001°01'3 6.7
2019-Jun-08 06:00N 49°26' E 001°03'0 0.6
2019-Jun-08 05:29N 49°26' E 001°03'0 0.0
2019-Jun-08 04:59N 49°26' E 001°03'0 0.0
2019-Jun-08 04:29N 49°26' E 001°03'0 0.0
2019-Jun-08 03:59N 49°26' E 001°03'0 0.0
2019-Jun-08 03:29N 49°26' E 001°03'0 0.0
2019-Jun-08 02:53N 49°26' E 001°03'0 0.0
2019-Jun-08 02:29N 49°26' E 001°03'0 0.0
2019-Jun-08 01:59N 49°26' E 001°03'0 0.0
2019-Jun-08 01:29N 49°26' E 001°03'0 0.0
2019-Jun-08 00:59N 49°26' E 001°03'0 0.0
2019-Jun-08 00:29N 49°26' E 001°03'0 0.0
2019-Jun-07 23:59N 49°26' E 001°03'0 0.0
2019-Jun-07 23:29N 49°26' E 001°03'0 0.0
2019-Jun-07 22:56N 49°26' E 001°03'0 0.0
2019-Jun-07 22:29N 49°26' E 001°03'0 0.0
2019-Jun-07 21:59N 49°26' E 001°03'0 0.0
2019-Jun-07 21:29N 49°26' E 001°03'0 0.0
2019-Jun-07 20:59N 49°26' E 001°03'0 0.0
2019-Jun-07 20:29N 49°26' E 001°03'0 0.0
2019-Jun-07 19:59N 49°26' E 001°03'0 0.0
2019-Jun-07 19:29N 49°26' E 001°03'0 0.0
2019-Jun-07 18:59N 49°26' E 001°03'0 0.0
2019-Jun-07 18:29N 49°26' E 001°03'0 0.0
2019-Jun-07 17:59N 49°26' E 001°03'0 0.0
2019-Jun-07 17:29N 49°26' E 001°03'0 0.0
2019-Jun-07 16:59N 49°26' E 001°03'0 0.0
2019-Jun-07 16:29N 49°26' E 001°03'0 0.0
2019-Jun-07 15:53N 49°26' E 001°03'0 0.0
2019-Jun-07 15:29N 49°26' E 001°03'0 0.0
2019-Jun-07 14:56N 49°26' E 001°03'0 0.0
2019-Jun-07 14:29N 49°26' E 001°03'0 0.0
2019-Jun-07 13:59N 49°26' E 001°03'0 0.0
2019-Jun-07 13:29N 49°26' E 001°03'0 0.0
2019-Jun-07 12:59N 49°26' E 001°03'0 0.0
2019-Jun-07 12:29N 49°26' E 001°03'0 0.0
2019-Jun-07 11:47N 49°26' E 001°03'0 0.0
2019-Jun-07 11:29N 49°26' E 001°03'0 0.0
2019-Jun-07 10:59N 49°26' E 001°03'0 0.0
2019-Jun-07 10:29N 49°26' E 001°03'0 0.0
2019-Jun-07 09:59N 49°26' E 001°03'0 0.0
2019-Jun-07 09:29N 49°26' E 001°03'0 0.0
2019-Jun-07 08:56N 49°26' E 001°03'0 0.0
2019-Jun-07 08:29N 49°26' E 001°03'0 0.0
2019-Jun-07 07:53N 49°26' E 001°03'0 0.0
2019-Jun-07 07:17N 49°26' E 001°03'0 0.0
2019-Jun-07 06:53N 49°26' E 001°03'0 0.0
2019-Jun-07 06:29N 49°26' E 001°03'0 0.0
2019-Jun-07 05:59N 49°26' E 001°03'0 0.0
2019-Jun-07 05:17N 49°26' E 001°03'0 0.0
2019-Jun-07 04:53N 49°26' E 001°03'0 0.0
2019-Jun-07 04:29N 49°26' E 001°03'0 0.0
2019-Jun-07 03:56N 49°26' E 001°03'0 0.0
2019-Jun-07 03:29N 49°26' E 001°03'0 0.0
2019-Jun-07 02:59N 49°26' E 001°03'0 0.0
2019-Jun-07 02:29N 49°26' E 001°03'0 0.0
2019-Jun-07 01:56N 49°26' E 001°03'0 0.0
2019-Jun-07 01:26N 49°26' E 001°03'0 0.0
2019-Jun-07 00:56N 49°26' E 001°03'0 0.0
2019-Jun-07 00:29N 49°26' E 001°03'0 0.0
2019-Jun-06 23:59N 49°26' E 001°03'0 0.0
2019-Jun-06 23:29N 49°26' E 001°03'0 0.0
2019-Jun-06 22:58N 49°26' E 001°03'0 0.0
2019-Jun-06 22:28N 49°26' E 001°03'0 0.0
2019-Jun-06 21:55N 49°26' E 001°03'0 0.0
2019-Jun-06 21:25N 49°26' E 001°03'0 0.0
2019-Jun-06 20:58N 49°26' E 001°03'0 0.0
2019-Jun-06 20:28N 49°26' E 001°03'0 0.0
2019-Jun-06 19:52N 49°26' E 001°03'0 0.0
2019-Jun-06 19:28N 49°26' E 001°03'0 0.0
2019-Jun-06 18:56N 49°26' E 001°03'0 0.0
2019-Jun-06 18:29N 49°26' E 001°03'0 0.0
2019-Jun-06 17:55N 49°26' E 001°03'0 0.0
2019-Jun-06 17:28N 49°26' E 001°03'0 0.0
2019-Jun-06 16:58N 49°26' E 001°03'0 0.0
2019-Jun-06 16:31N 49°26' E 001°03'1 1.2
2019-Jun-06 16:01N 49°26' E 001°02'3 6.8
2019-Jun-06 15:30N 49°23' E 001°01'4 7.1
2019-Jun-06 15:00N 49°22' E 000°55'611.8
2019-Jun-06 14:31N 49°28' E 000°56'  
Track history (hours):
 
Tides and Currents Weather Stations Pressure Air Temp Water Temp Dewpoint Dewpoint Depression Visibility Wind Speed Wind Dir Waves Ship Positions

Marco Polo

Operator: Orient Lines

Last reported at 2019-Jun-16 14:28 UTC. Time now 2019-Jun-16 14:38 UTC.
Position N 49°29' E 000°06'.

Type: Ship. MMSI: 308691456.

Date/timePositionNaut miles runAvg speedWind from/ knotsBaromVisibWave heightAir tempDewpointWater temp
2019-Jun-16 14:28N 49°29' E 000°06'0 0.0
2019-Jun-16 13:58N 49°29' E 000°06'0 0.0
2019-Jun-16 13:28N 49°29' E 000°06'0 0.0
2019-Jun-16 12:58N 49°29' E 000°06'0 0.0
2019-Jun-16 12:28N 49°29' E 000°06'0 0.0
2019-Jun-16 11:58N 49°29' E 000°06'0 0.0
2019-Jun-16 11:28N 49°29' E 000°06'0 0.0
2019-Jun-16 10:58N 49°29' E 000°06'0 0.0
2019-Jun-16 10:28N 49°29' E 000°06'0 0.0
2019-Jun-16 09:58N 49°29' E 000°06'0 0.0
2019-Jun-16 09:30N 49°29' E 000°06'2 3.7
2019-Jun-16 09:00N 49°29' E 000°04'3 5.2
2019-Jun-16 08:30N 49°27' E 000°02'612.7
2019-Jun-16 08:00N 49°26' E 000°12'510.4
2019-Jun-16 07:30N 49°26' E 000°20'5 9.0
2019-Jun-16 07:00N 49°28' E 000°26'3 6.8
2019-Jun-16 06:30N 49°29' E 000°31'4 7.1
2019-Jun-16 06:00N 49°26' E 000°35'4 8.2
2019-Jun-16 05:30N 49°29' E 000°40'4 8.4
2019-Jun-16 05:00N 49°31' E 000°45'510.0
2019-Jun-16 04:30N 49°27' E 000°49'3 7.0
2019-Jun-16 04:00N 49°24' E 000°52'510.1
2019-Jun-16 03:30N 49°29' E 000°54'510.3
2019-Jun-16 03:00N 49°24' E 000°55'4 7.1
2019-Jun-16 02:30N 49°22' E 000°59'4 7.9
2019-Jun-16 02:00N 49°25' E 001°01'1 3.0
2019-Jun-16 01:30N 49°26' E 001°03'0 0.0
2019-Jun-16 00:58N 49°26' E 001°03'0 0.0
2019-Jun-16 00:10N 49°26' E 001°03'0 0.0
2019-Jun-15 23:58N 49°26' E 001°03'0 0.0
2019-Jun-15 23:28N 49°26' E 001°03'0 0.0
2019-Jun-15 22:55N 49°26' E 001°03'0 0.0
2019-Jun-15 22:28N 49°26' E 001°03'0 0.0
2019-Jun-15 21:58N 49°26' E 001°03'0 0.0
2019-Jun-15 21:25N 49°26' E 001°03'0 0.0
2019-Jun-15 20:52N 49°26' E 001°03'0 0.0
2019-Jun-15 20:25N 49°26' E 001°03'0 0.0
2019-Jun-15 19:58N 49°26' E 001°03'0 0.0
2019-Jun-15 19:25N 49°26' E 001°03'0 0.0
2019-Jun-15 18:58N 49°26' E 001°03'0 0.0
2019-Jun-15 18:25N 49°26' E 001°03'0 0.0
2019-Jun-15 17:58N 49°26' E 001°03'0 0.0
2019-Jun-15 17:10N 49°26' E 001°03'0 0.0
2019-Jun-15 16:58N 49°26' E 001°03'0 0.0
2019-Jun-15 16:28N 49°26' E 001°03'0 0.0
2019-Jun-15 15:55N 49°26' E 001°03'0 0.0
2019-Jun-15 15:28N 49°26' E 001°03'0 0.0
2019-Jun-15 14:58N 49°26' E 001°03'0 0.0
2019-Jun-15 14:28N 49°26' E 001°03'0 0.0
2019-Jun-15 13:58N 49°26' E 001°03'0 0.0
2019-Jun-15 13:19N 49°26' E 001°03'0 0.0
2019-Jun-15 12:58N 49°26' E 001°03'0 0.0
2019-Jun-15 12:28N 49°26' E 001°03'0 0.0
2019-Jun-15 11:58N 49°26' E 001°03'0 0.0
2019-Jun-15 11:28N 49°26' E 001°03'0 0.0
2019-Jun-15 10:55N 49°26' E 001°03'0 0.0
2019-Jun-15 10:25N 49°26' E 001°03'0 0.0
2019-Jun-15 09:49N 49°26' E 001°03'0 0.0
2019-Jun-15 09:28N 49°26' E 001°03'0 0.0
2019-Jun-15 08:52N 49°26' E 001°03'0 0.0
2019-Jun-15 08:25N 49°26' E 001°03'0 0.0
2019-Jun-15 07:55N 49°26' E 001°03'0 0.0
2019-Jun-15 07:25N 49°26' E 001°03'0 0.0
2019-Jun-15 06:58N 49°26' E 001°03'0 0.0
2019-Jun-15 06:25N 49°26' E 001°03'0 0.0
2019-Jun-15 05:55N 49°26' E 001°03'0 0.0
2019-Jun-15 05:28N 49°26' E 001°03'0 0.0
2019-Jun-15 04:58N 49°26' E 001°03'0 0.0
2019-Jun-15 04:25N 49°26' E 001°03'0 0.0
2019-Jun-15 03:49N 49°26' E 001°03'0 0.0
2019-Jun-15 03:28N 49°26' E 001°03'0 0.0
2019-Jun-15 02:52N 49°26' E 001°03'0 0.0
2019-Jun-15 02:25N 49°26' E 001°03'0 0.0
2019-Jun-15 01:58N 49°26' E 001°03'0 0.0
2019-Jun-15 01:25N 49°26' E 001°03'0 0.0
2019-Jun-15 00:58N 49°26' E 001°03'0 0.0
2019-Jun-15 00:25N 49°26' E 001°03'0 0.0
2019-Jun-14 23:52N 49°26' E 001°03'0 0.0
2019-Jun-14 23:25N 49°26' E 001°03'0 0.0
2019-Jun-14 22:52N 49°26' E 001°03'0 0.0
2019-Jun-14 22:16N 49°26' E 001°03'0 0.0
2019-Jun-14 21:55N 49°26' E 001°03'0 0.0
2019-Jun-14 21:28N 49°26' E 001°03'0 0.0
2019-Jun-14 20:55N 49°26' E 001°03'0 0.0
2019-Jun-14 20:28N 49°26' E 001°03'0 0.0
2019-Jun-14 19:49N 49°26' E 001°03'0 0.0
2019-Jun-14 19:25N 49°26' E 001°03'0 0.0
2019-Jun-14 18:58N 49°26' E 001°03'0 0.0
2019-Jun-14 18:28N 49°26' E 001°03'0 0.0
2019-Jun-14 17:55N 49°26' E 001°03'0 0.0
2019-Jun-14 17:19N 49°26' E 001°03'0 0.0
2019-Jun-14 16:55N 49°26' E 001°03'0 0.0
2019-Jun-14 16:28N 49°26' E 001°03'0 0.0
2019-Jun-14 15:46N 49°26' E 001°03'0 0.0
2019-Jun-14 15:28N 49°26' E 001°03'0 0.0
2019-Jun-14 14:55N 49°26' E 001°03'0 0.0
2019-Jun-14 14:25N 49°26' E 001°03'0 0.0
2019-Jun-14 13:58N 49°26' E 001°03'0 0.0
2019-Jun-14 13:28N 49°26' E 001°03'0 0.0
2019-Jun-14 12:49N 49°26' E 001°03'0 0.0
2019-Jun-14 12:28N 49°26' E 001°03'0 0.0
2019-Jun-14 11:52N 49°26' E 001°03'0 0.0
2019-Jun-14 11:28N 49°26' E 001°03'0 0.0
2019-Jun-14 10:55N 49°26' E 001°03'0 0.0
2019-Jun-14 10:28N 49°26' E 001°03'0 0.0
2019-Jun-14 09:58N 49°26' E 001°03'0 0.0
2019-Jun-14 09:25N 49°26' E 001°03'0 0.0
2019-Jun-14 08:55N 49°26' E 001°03'0 0.0
2019-Jun-14 08:25N 49°26' E 001°03'0 0.0
2019-Jun-14 07:58N 49°26' E 001°03'0 0.0
2019-Jun-14 07:28N 49°26' E 001°03'0 0.0
2019-Jun-14 06:58N 49°26' E 001°03'0 0.0
2019-Jun-14 06:28N 49°26' E 001°03'0 0.0
2019-Jun-14 05:55N 49°26' E 001°03'0 0.0
2019-Jun-14 05:22N 49°26' E 001°03'0 0.0
2019-Jun-14 04:58N 49°26' E 001°03'0 0.0
2019-Jun-14 04:28N 49°26' E 001°03'0 0.0
2019-Jun-14 03:58N 49°26' E 001°03'0 0.0
2019-Jun-14 03:25N 49°26' E 001°03'0 0.0
2019-Jun-14 02:58N 49°26' E 001°03'0 0.0
2019-Jun-14 02:28N 49°26' E 001°03'0 0.0
2019-Jun-14 01:58N 49°26' E 001°03'0 0.0
2019-Jun-14 01:25N 49°26' E 001°03'0 0.0
2019-Jun-14 00:55N 49°26' E 001°03'0 0.0
2019-Jun-14 00:28N 49°26' E 001°03'0 0.0
2019-Jun-13 23:58N 49°26' E 001°03'0 0.4
2019-Jun-13 23:30N 49°26' E 001°03'1 1.6
2019-Jun-13 23:00N 49°26' E 001°02'4 7.4
2019-Jun-13 22:30N 49°22' E 001°00'3 6.7
2019-Jun-13 22:00N 49°23' E 000°55'611.6
2019-Jun-13 21:30N 49°28' E 000°56'4 7.5
2019-Jun-13 21:00N 49°26' E 000°52'2 4.8
2019-Jun-13 20:30N 49°26' E 000°48'510.0
2019-Jun-13 20:00N 49°31' E 000°46'4 8.5
2019-Jun-13 19:30N 49°29' E 000°40'5 9.4
2019-Jun-13 19:00N 49°27' E 000°34'5 9.1
2019-Jun-13 18:30N 49°28' E 000°27'714.2
2019-Jun-13 18:00N 49°26' E 000°16'713.5
2019-Jun-13 17:30N 49°26' E 000°06'612.9
2019-Jun-13 17:00N 49°29' W 000°03'510.9
2019-Jun-13 16:30N 49°30' W 000°11'612.1
2019-Jun-13 16:00N 49°32' W 000°20'815.4
2019-Jun-13 15:30N 49°35' W 000°31'917.7
2019-Jun-13 15:00N 49°38' W 000°44'917.6
2019-Jun-13 14:29N 49°41' W 000°57'3116.5
2019-Jun-13 12:38N 49°48' W 001°44'814.9
2019-Jun-13 12:07N 49°49' W 001°55'113.9
2019-Jun-13 12:01N 49°50' W 001°57'2912.5
2019-Jun-13 09:41N 49°51' W 002°43'213.3
2019-Jun-13 09:30N 49°51' W 002°46'713.5
2019-Jun-13 08:59N 49°50' W 002°57'713.7
2019-Jun-13 08:30N 49°50' W 003°07'714.0
2019-Jun-13 08:00N 49°50' W 003°18'714.2
2019-Jun-13 07:30N 49°50' W 003°29'714.4
2019-Jun-13 07:00N 49°51' W 003°40'714.6
2019-Jun-13 06:30N 49°51' W 003°52'714.8
2019-Jun-13 06:00N 49°52' W 004°03'815.9
2019-Jun-13 05:29N 49°52' W 004°16'816.2
2019-Jun-13 05:00N 49°52' W 004°28'14814.0
2019-Jun-12 18:26N 51°19' W 007°36'614.7
2019-Jun-12 18:00N 51°24' W 007°43'714.9
2019-Jun-12 17:30N 51°29' W 007°51'714.9
2019-Jun-12 17:00N 51°35' W 007°59'815.0
2019-Jun-12 16:30N 51°40' W 008°07'714.6
2019-Jun-12 16:00N 51°46' W 008°15'510.5
2019-Jun-12 15:30N 51°51' W 008°17'2 3.1
2019-Jun-12 14:58N 51°50' W 008°20'0 0.0
2019-Jun-12 14:28N 51°50' W 008°20'0 0.0
2019-Jun-12 13:58N 51°50' W 008°20'0 0.0
2019-Jun-12 13:28N 51°50' W 008°20'0 0.0
2019-Jun-12 12:58N 51°50' W 008°20'0 0.0
2019-Jun-12 12:28N 51°50' W 008°20'0 0.0
2019-Jun-12 11:58N 51°50' W 008°20'0 0.0
2019-Jun-12 11:28N 51°50' W 008°20'0 0.0
2019-Jun-12 10:58N 51°50' W 008°20'0 0.0
2019-Jun-12 10:28N 51°50' W 008°20'0 0.0
2019-Jun-12 09:58N 51°50' W 008°20'0 0.0
2019-Jun-12 09:28N 51°50' W 008°20'0 0.0
2019-Jun-12 08:58N 51°50' W 008°20'0 0.0
2019-Jun-12 08:28N 51°50' W 008°20'0 0.0
2019-Jun-12 07:58N 51°50' W 008°20'0 0.0
2019-Jun-12 07:28N 51°50' W 008°20'0 0.0
2019-Jun-12 06:59N 51°50' W 008°20'0 0.4
2019-Jun-12 06:30N 51°50' W 008°20'2 5.0
2019-Jun-12 06:00N 51°51' W 008°16'510.8
2019-Jun-12 05:30N 51°45' W 008°15'5 9.2
2019-Jun-12 05:00N 51°44' W 008°08'714.4
2019-Jun-12 04:30N 51°46' W 007°57'714.0
2019-Jun-12 04:01N 51°48' W 007°46'714.0
2019-Jun-12 03:30N 51°50' W 007°35'713.8
2019-Jun-12 03:00N 51°52' W 007°24'3813.5
2019-Jun-12 00:10N 52°04' W 006°25'313.6
2019-Jun-11 23:57N 52°05' W 006°21'614.1
2019-Jun-11 23:30N 52°08' W 006°12'714.1
2019-Jun-11 23:00N 52°14' W 006°06'815.1
2019-Jun-11 22:30N 52°21' W 006°02'815.7
2019-Jun-11 22:00N 52°29' W 005°57'1516.1
2019-Jun-11 21:06N 52°43' W 005°49'116.4
2019-Jun-11 21:00N 52°44' W 005°49'816.5
2019-Jun-11 20:30N 52°52' W 005°45'816.3
2019-Jun-11 20:00N 52°60' W 005°40'815.0
2019-Jun-11 19:30N 53°07' W 005°42'714.9
2019-Jun-11 19:00N 53°13' W 005°48'1014.0
2019-Jun-11 18:17N 53°21' W 006°00'311.8
2019-Jun-11 18:00N 53°20' W 006°05'4 8.6
2019-Jun-11 17:30N 53°21' W 006°12'0 0.2
2019-Jun-11 16:55N 53°21' W 006°13'0 0.0
2019-Jun-11 16:19N 53°21' W 006°13'0 0.0
2019-Jun-11 15:49N 53°21' W 006°13'0 0.0
2019-Jun-11 15:19N 53°21' W 006°13'0 0.0
2019-Jun-11 14:49N 53°21' W 006°13'0 0.0
2019-Jun-11 14:19N 53°21' W 006°13'0 0.0
2019-Jun-11 13:43N 53°21' W 006°13'0 0.0
2019-Jun-11 13:13N 53°21' W 006°13'0 0.0
2019-Jun-11 12:43N 53°21' W 006°13'0 0.0
2019-Jun-11 12:13N 53°21' W 006°13'0 0.0
2019-Jun-11 11:40N 53°21' W 006°13'0 0.0
2019-Jun-11 11:31N 53°21' W 006°13'0 0.0
2019-Jun-11 11:00N 53°21' W 006°13'0 0.0
2019-Jun-11 10:31N 53°21' W 006°13'0 0.0
2019-Jun-11 10:00N 53°21' W 006°13'0 0.0
2019-Jun-11 09:06N 53°21' W 006°13'0 0.0
2019-Jun-11 09:00N 53°21' W 006°13'0 0.0
2019-Jun-11 08:30N 53°21' W 006°13'0 0.0
2019-Jun-11 08:00N 53°21' W 006°13'0 0.0
2019-Jun-11 07:30N 53°21' W 006°13'0 0.0
2019-Jun-11 07:00N 53°21' W 006°13'0 0.0
2019-Jun-11 06:30N 53°21' W 006°13'0 0.0
2019-Jun-11 06:00N 53°21' W 006°13'1 1.8
2019-Jun-11 05:30N 53°21' W 006°11'4 8.9
2019-Jun-11 05:00N 53°20' W 006°04'711.4
2019-Jun-11 04:23N 53°18' W 005°53'614.4
2019-Jun-11 04:00N 53°13' W 005°48'714.7
2019-Jun-11 03:30N 53°07' W 005°40'714.7
2019-Jun-11 03:00N 53°00' W 005°38'816.1
2019-Jun-11 02:30N 52°52' W 005°39'816.1
2019-Jun-11 02:00N 52°44' W 005°40'1715.8
2019-Jun-11 00:55N 52°27' W 005°41'716.9
2019-Jun-11 00:30N 52°20' W 005°42'917.0
2019-Jun-10 23:59N 52°11' W 005°43'3416.0
2019-Jun-10 21:52N 51°38' W 005°51'615.3
2019-Jun-10 21:30N 51°32' W 005°53'815.1
2019-Jun-10 21:00N 51°25' W 005°55'102 5.2
2019-Jun-10 01:16N 49°56' W 004°34'614.7
2019-Jun-10 00:50N 49°58' W 004°25'514.5
2019-Jun-10 00:30N 49°59' W 004°17'714.8
2019-Jun-10 00:00N 50°01' W 004°07'815.5
2019-Jun-09 23:30N 50°04' W 003°55'815.1
2019-Jun-09 23:01N 50°06' W 003°44'815.1
2019-Jun-09 22:30N 50°08' W 003°33'815.4
2019-Jun-09 22:01N 50°10' W 003°21'815.7
2019-Jun-09 21:30N 50°11' W 003°09'816.0
2019-Jun-09 21:01N 50°13' W 002°57'816.6
2019-Jun-09 20:31N 50°15' W 002°44'917.2
2019-Jun-09 20:00N 50°17' W 002°31'918.0
2019-Jun-09 19:30N 50°19' W 002°17'918.4
2019-Jun-09 19:01N 50°21' W 002°04'918.6
2019-Jun-09 18:31N 50°23' W 001°49'918.4
2019-Jun-09 18:01N 50°26' W 001°35'918.1
2019-Jun-09 17:31N 50°29' W 001°22'918.7
2019-Jun-09 17:01N 50°33' W 001°09'816.2
2019-Jun-09 16:31N 50°38' W 000°59'510.9
2019-Jun-09 16:00N 50°43' W 001°02'510.9
2019-Jun-09 15:30N 50°48' W 001°07'1 2.3
2019-Jun-09 15:00N 50°49' W 001°06'0 0.0
2019-Jun-09 14:30N 50°49' W 001°06'0 0.0
2019-Jun-09 14:00N 50°49' W 001°06'0 0.0
2019-Jun-09 13:30N 50°49' W 001°06'0 0.0
2019-Jun-09 13:00N 50°49' W 001°06'0 0.0
2019-Jun-09 12:30N 50°49' W 001°06'0 0.0
2019-Jun-09 12:00N 50°49' W 001°06'0 0.0
2019-Jun-09 11:30N 50°49' W 001°06'0 0.0
2019-Jun-09 11:00N 50°49' W 001°06'0 0.0
2019-Jun-09 10:30N 50°49' W 001°06'0 0.0
2019-Jun-09 10:00N 50°49' W 001°06'0 0.0
2019-Jun-09 09:30N 50°49' W 001°06'0 0.0
2019-Jun-09 09:00N 50°49' W 001°06'0 0.0
2019-Jun-09 08:30N 50°49' W 001°06'0 0.0
2019-Jun-09 08:00N 50°49' W 001°06'0 0.0
2019-Jun-09 07:30N 50°49' W 001°06'0 0.0
2019-Jun-09 07:00N 50°49' W 001°06'0 0.0
2019-Jun-09 06:30N 50°49' W 001°06'0 0.0
2019-Jun-09 06:00N 50°49' W 001°06'0 0.0
2019-Jun-09 05:30N 50°49' W 001°06'0 0.0
2019-Jun-09 05:00N 50°49' W 001°06'0 0.0
2019-Jun-09 04:00N 50°49' W 001°06'0 0.0
2019-Jun-09 03:30N 50°49' W 001°06'0 0.0
2019-Jun-09 03:00N 50°49' W 001°06'0 0.0
2019-Jun-09 02:30N 50°49' W 001°06'0 0.0
2019-Jun-09 02:00N 50°49' W 001°06'0 0.0
2019-Jun-09 01:30N 50°49' W 001°06'0 0.0
2019-Jun-09 01:00N 50°49' W 001°06'0 0.0
2019-Jun-09 00:30N 50°49' W 001°06'0 0.0
2019-Jun-09 00:00N 50°49' W 001°06'0 0.0
2019-Jun-08 23:30N 50°49' W 001°06'0 0.0
2019-Jun-08 23:00N 50°49' W 001°06'0 0.0
2019-Jun-08 22:30N 50°49' W 001°06'0 0.0
2019-Jun-08 22:00N 50°49' W 001°06'0 0.0
2019-Jun-08 21:30N 50°49' W 001°06'0 0.0
2019-Jun-08 21:00N 50°49' W 001°06'0 0.0
2019-Jun-08 20:30N 50°49' W 001°06'0 0.0
2019-Jun-08 20:00N 50°49' W 001°06'0 0.1
2019-Jun-08 19:30N 50°49' W 001°06'2 4.4
2019-Jun-08 19:00N 50°46' W 001°06'5 9.6
2019-Jun-08 18:30N 50°43' W 001°00'510.2
2019-Jun-08 18:00N 50°38' W 000°59'612.2
2019-Jun-08 17:30N 50°32' W 000°59'815.7
2019-Jun-08 17:00N 50°24' W 000°56'815.9
2019-Jun-08 16:30N 50°17' W 000°49'1016.5
2019-Jun-08 15:54N 50°09' W 000°41'616.1
2019-Jun-08 15:30N 50°03' W 000°37'816.0
2019-Jun-08 15:00N 49°56' W 000°32'815.7
2019-Jun-08 14:30N 49°48' W 000°28'815.9
2019-Jun-08 14:01N 49°41' W 000°24'815.7
2019-Jun-08 13:31N 49°34' W 000°19'815.2
2019-Jun-08 13:01N 49°30' W 000°09'612.8
2019-Jun-08 12:30N 49°28' E 000°00'611.7
2019-Jun-08 12:00N 49°26' E 000°09'510.9
2019-Jun-08 11:30N 49°26' E 000°17'4 8.7
2019-Jun-08 11:00N 49°27' E 000°24'5 9.0
2019-Jun-08 10:30N 49°29' E 000°30'510.1
2019-Jun-08 10:00N 49°26' E 000°36'611.7
2019-Jun-08 09:30N 49°31' E 000°41'4 8.1
2019-Jun-08 09:01N 49°29' E 000°46'5 9.2
2019-Jun-08 08:30N 49°25' E 000°48'3 5.1
2019-Jun-08 08:00N 49°27' E 000°51'3 6.2
2019-Jun-08 07:30N 49°27' E 000°56'612.1
2019-Jun-08 07:00N 49°21' E 000°56'4 7.1
2019-Jun-08 06:30N 49°23' E 001°01'3 6.7
2019-Jun-08 06:00N 49°26' E 001°03'0 0.6
2019-Jun-08 05:29N 49°26' E 001°03'0 0.0
2019-Jun-08 04:59N 49°26' E 001°03'0 0.0
2019-Jun-08 04:29N 49°26' E 001°03'0 0.0
2019-Jun-08 03:59N 49°26' E 001°03'0 0.0
2019-Jun-08 03:29N 49°26' E 001°03'0 0.0
2019-Jun-08 02:53N 49°26' E 001°03'0 0.0
2019-Jun-08 02:29N 49°26' E 001°03'0 0.0
2019-Jun-08 01:59N 49°26' E 001°03'0 0.0
2019-Jun-08 01:29N 49°26' E 001°03'0 0.0
2019-Jun-08 00:59N 49°26' E 001°03'0 0.0
2019-Jun-08 00:29N 49°26' E 001°03'0 0.0
2019-Jun-07 23:59N 49°26' E 001°03'0 0.0
2019-Jun-07 23:29N 49°26' E 001°03'0 0.0
2019-Jun-07 22:56N 49°26' E 001°03'0 0.0
2019-Jun-07 22:29N 49°26' E 001°03'0 0.0
2019-Jun-07 21:59N 49°26' E 001°03'0 0.0
2019-Jun-07 21:29N 49°26' E 001°03'0 0.0
2019-Jun-07 20:59N 49°26' E 001°03'0 0.0
2019-Jun-07 20:29N 49°26' E 001°03'0 0.0
2019-Jun-07 19:59N 49°26' E 001°03'0 0.0
2019-Jun-07 19:29N 49°26' E 001°03'0 0.0
2019-Jun-07 18:59N 49°26' E 001°03'0 0.0
2019-Jun-07 18:29N 49°26' E 001°03'0 0.0
2019-Jun-07 17:59N 49°26' E 001°03'0 0.0
2019-Jun-07 17:29N 49°26' E 001°03'0 0.0
2019-Jun-07 16:59N 49°26' E 001°03'0 0.0
2019-Jun-07 16:29N 49°26' E 001°03'0 0.0
2019-Jun-07 15:53N 49°26' E 001°03'0 0.0
2019-Jun-07 15:29N 49°26' E 001°03'0 0.0
2019-Jun-07 14:56N 49°26' E 001°03'0 0.0
2019-Jun-07 14:29N 49°26' E 001°03'0 0.0
2019-Jun-07 13:59N 49°26' E 001°03'0 0.0
2019-Jun-07 13:29N 49°26' E 001°03'0 0.0
2019-Jun-07 12:59N 49°26' E 001°03'0 0.0
2019-Jun-07 12:29N 49°26' E 001°03'0 0.0
2019-Jun-07 11:47N 49°26' E 001°03'0 0.0
2019-Jun-07 11:29N 49°26' E 001°03'0 0.0
2019-Jun-07 10:59N 49°26' E 001°03'0 0.0
2019-Jun-07 10:29N 49°26' E 001°03'0 0.0
2019-Jun-07 09:59N 49°26' E 001°03'0 0.0
2019-Jun-07 09:29N 49°26' E 001°03'0 0.0
2019-Jun-07 08:56N 49°26' E 001°03'0 0.0
2019-Jun-07 08:29N 49°26' E 001°03'0 0.0
2019-Jun-07 07:53N 49°26' E 001°03'0 0.0
2019-Jun-07 07:17N 49°26' E 001°03'0 0.0
2019-Jun-07 06:53N 49°26' E 001°03'0 0.0
2019-Jun-07 06:29N 49°26' E 001°03'0 0.0
2019-Jun-07 05:59N 49°26' E 001°03'0 0.0
2019-Jun-07 05:17N 49°26' E 001°03'0 0.0
2019-Jun-07 04:53N 49°26' E 001°03'0 0.0
2019-Jun-07 04:29N 49°26' E 001°03'0 0.0
2019-Jun-07 03:56N 49°26' E 001°03'0 0.0
2019-Jun-07 03:29N 49°26' E 001°03'0 0.0
2019-Jun-07 02:59N 49°26' E 001°03'0 0.0
2019-Jun-07 02:29N 49°26' E 001°03'0 0.0
2019-Jun-07 01:56N 49°26' E 001°03'0 0.0
2019-Jun-07 01:26N 49°26' E 001°03'0 0.0
2019-Jun-07 00:56N 49°26' E 001°03'0 0.0
2019-Jun-07 00:29N 49°26' E 001°03'0 0.0
2019-Jun-06 23:59N 49°26' E 001°03'0 0.0
2019-Jun-06 23:29N 49°26' E 001°03'0 0.0
2019-Jun-06 22:58N 49°26' E 001°03'0 0.0
2019-Jun-06 22:28N 49°26' E 001°03'0 0.0
2019-Jun-06 21:55N 49°26' E 001°03'0 0.0
2019-Jun-06 21:25N 49°26' E 001°03'0 0.0
2019-Jun-06 20:58N 49°26' E 001°03'0 0.0
2019-Jun-06 20:28N 49°26' E 001°03'0 0.0
2019-Jun-06 19:52N 49°26' E 001°03'0 0.0
2019-Jun-06 19:28N 49°26' E 001°03'0 0.0
2019-Jun-06 18:56N 49°26' E 001°03'0 0.0
2019-Jun-06 18:29N 49°26' E 001°03'0 0.0
2019-Jun-06 17:55N 49°26' E 001°03'0 0.0
2019-Jun-06 17:28N 49°26' E 001°03'0 0.0
2019-Jun-06 16:58N 49°26' E 001°03'0 0.0
2019-Jun-06 16:31N 49°26' E 001°03'1 1.2
2019-Jun-06 16:01N 49°26' E 001°02'3 6.8
2019-Jun-06 15:30N 49°23' E 001°01'4 7.1
2019-Jun-06 15:00N 49°22' E 000°55'611.8
2019-Jun-06 14:31N 49°28' E 000°56'  

Dump ship's entire track history